createdAt,value
2023-04-01T00:00:39.360Z,807.31
2023-04-01T00:01:39.357Z,807.30
2023-04-01T00:02:39.401Z,807.35
2023-04-01T00:03:39.599Z,807.30
2023-04-01T00:04:39.405Z,807.34
2023-04-01T00:05:39.380Z,807.35
2023-04-01T00:06:39.374Z,807.42
2023-04-01T00:07:39.390Z,807.39
2023-04-01T00:08:39.378Z,807.39
2023-04-01T00:09:39.380Z,807.44
2023-04-01T00:10:39.388Z,807.49
2023-04-01T00:11:39.387Z,807.48
2023-04-01T00:12:39.396Z,807.48
2023-04-01T00:13:39.412Z,807.49
2023-04-01T00:14:39.403Z,807.53
2023-04-01T00:15:39.405Z,807.56
2023-04-01T00:16:39.462Z,807.64
2023-04-01T00:17:39.440Z,807.68
2023-04-01T00:18:39.420Z,807.66
2023-04-01T00:19:39.429Z,807.74
2023-04-01T00:20:39.431Z,807.69
2023-04-01T00:21:39.425Z,807.64
2023-04-01T00:22:39.432Z,807.67
2023-04-01T00:23:39.456Z,807.78
2023-04-01T00:24:39.440Z,807.78
2023-04-01T00:25:39.442Z,807.83
2023-04-01T00:26:39.448Z,807.78
2023-04-01T00:27:39.451Z,807.79
2023-04-01T00:28:39.459Z,807.71
2023-04-01T00:29:39.462Z,807.81
2023-04-01T00:30:39.530Z,807.87
2023-04-01T00:31:39.487Z,807.91
2023-04-01T00:32:39.518Z,807.89
2023-04-01T00:33:39.494Z,807.83
2023-04-01T00:34:39.497Z,807.76
2023-04-01T00:35:39.508Z,807.74
2023-04-01T00:36:39.557Z,807.84
2023-04-01T00:37:39.492Z,807.85
2023-04-01T00:38:39.503Z,807.69
2023-04-01T00:39:39.518Z,807.74
2023-04-01T00:40:39.511Z,807.77
2023-04-01T00:41:39.504Z,807.76
2023-04-01T00:42:39.511Z,807.66
2023-04-01T00:43:39.514Z,807.68
2023-04-01T00:44:39.523Z,807.73
2023-04-01T00:45:39.527Z,807.75
2023-04-01T00:46:39.548Z,807.69
2023-04-01T00:47:39.542Z,807.74
2023-04-01T00:48:39.538Z,807.61
2023-04-01T00:49:39.546Z,807.63
2023-04-01T00:50:39.544Z,807.75
2023-04-01T00:51:39.542Z,807.71
2023-04-01T00:52:39.557Z,807.68
2023-04-01T00:53:39.558Z,807.59
2023-04-01T00:54:39.556Z,807.62
2023-04-01T00:55:39.574Z,807.72
2023-04-01T00:56:39.560Z,807.76
2023-04-01T00:57:39.574Z,807.76
2023-04-01T00:58:39.569Z,807.68
2023-04-01T00:59:39.568Z,807.60
2023-04-01T01:00:39.613Z,807.61
2023-04-01T01:01:39.576Z,807.62
2023-04-01T01:02:39.700Z,807.68
2023-04-01T01:03:39.603Z,807.56
2023-04-01T01:04:39.592Z,807.63
2023-04-01T01:05:48.478Z,807.61
2023-04-01T01:06:39.611Z,807.61
2023-04-01T01:07:39.603Z,807.62
2023-04-01T01:08:39.601Z,807.54
2023-04-01T01:09:39.606Z,807.55
2023-04-01T01:10:39.626Z,807.54
2023-04-01T01:11:43.772Z,807.54
2023-04-01T01:12:39.637Z,807.50
2023-04-01T01:13:39.615Z,807.43
2023-04-01T01:14:39.623Z,807.39
2023-04-01T01:15:39.625Z,807.34
2023-04-01T01:16:39.664Z,807.34
2023-04-01T01:17:39.722Z,807.27
2023-04-01T01:18:39.636Z,807.24
2023-04-01T01:19:39.639Z,807.26
2023-04-01T01:20:39.643Z,807.28
2023-04-01T01:21:39.642Z,807.29
2023-04-01T01:22:39.649Z,807.30
2023-04-01T01:23:39.655Z,807.31
2023-04-01T01:24:39.659Z,807.30
2023-04-01T01:25:39.664Z,807.25
2023-04-01T01:26:39.663Z,807.23
2023-04-01T01:27:39.683Z,807.21
2023-04-01T01:28:39.675Z,807.24
2023-04-01T01:29:39.672Z,807.19
2023-04-01T01:30:39.730Z,807.16
2023-04-01T01:31:39.679Z,807.18
2023-04-01T01:32:39.740Z,807.14
2023-04-01T01:33:39.685Z,807.15
2023-04-01T01:34:39.694Z,807.15
2023-04-01T01:35:39.712Z,807.17
2023-04-01T01:36:39.699Z,807.17
2023-04-01T01:37:39.709Z,807.19
2023-04-01T01:38:39.710Z,807.20
2023-04-01T01:39:39.709Z,807.18
2023-04-01T01:40:39.715Z,807.20
2023-04-01T01:41:39.729Z,807.24
2023-04-01T01:42:39.726Z,807.25
2023-04-01T01:43:39.752Z,807.32
2023-04-01T01:44:39.732Z,807.34
2023-04-01T01:45:39.751Z,807.37
2023-04-01T01:46:39.790Z,807.37
2023-04-01T01:47:39.772Z,807.34
2023-04-01T01:48:39.753Z,807.38
2023-04-01T01:49:39.744Z,807.40
2023-04-01T01:50:39.759Z,807.35
2023-04-01T01:51:39.750Z,807.32
2023-04-01T01:52:39.759Z,807.30
2023-04-01T01:53:39.774Z,807.27
2023-04-01T01:54:39.771Z,807.24
2023-04-01T01:55:39.770Z,807.17
2023-04-01T01:56:39.772Z,807.17
2023-04-01T01:57:39.780Z,807.10
2023-04-01T01:58:39.780Z,807.15
2023-04-01T01:59:39.799Z,807.13
2023-04-01T02:00:39.794Z,807.06
2023-04-01T02:01:39.814Z,806.94
2023-04-01T02:02:39.835Z,806.91
2023-04-01T02:03:39.797Z,806.99
2023-04-01T02:04:39.832Z,806.99
2023-04-01T02:05:39.801Z,807.00
2023-04-01T02:06:39.813Z,806.99
2023-04-01T02:07:39.810Z,807.03
2023-04-01T02:08:39.836Z,807.03
2023-04-01T02:09:39.818Z,807.05
2023-04-01T02:10:39.826Z,807.06
2023-04-01T02:11:39.828Z,807.07
2023-04-01T02:12:39.829Z,807.11
2023-04-01T02:13:39.839Z,807.11
2023-04-01T02:14:39.842Z,807.09
2023-04-01T02:15:39.869Z,807.07
2023-04-01T02:16:39.851Z,807.04
2023-04-01T02:17:39.883Z,807.12
2023-04-01T02:18:39.853Z,807.15
2023-04-01T02:19:39.857Z,807.19
2023-04-01T02:20:39.858Z,807.22
2023-04-01T02:21:39.861Z,807.29
2023-04-01T02:22:39.871Z,807.17
2023-04-01T02:23:39.868Z,807.16
2023-04-01T02:24:39.874Z,807.15
2023-04-01T02:25:39.887Z,807.19
2023-04-01T02:26:39.883Z,807.18
2023-04-01T02:27:39.882Z,807.19
2023-04-01T02:28:39.896Z,807.21
2023-04-01T02:29:39.889Z,807.24
2023-04-01T02:30:39.916Z,807.24
2023-04-01T02:31:40.030Z,807.25
2023-04-01T02:32:39.993Z,807.30
2023-04-01T02:33:39.944Z,807.31
2023-04-01T02:34:39.911Z,807.36
2023-04-01T02:35:39.933Z,807.33
2023-04-01T02:36:39.914Z,807.32
2023-04-01T02:37:40.569Z,807.31
2023-04-01T02:38:39.937Z,807.21
2023-04-01T02:39:39.923Z,807.12
2023-04-01T02:40:39.938Z,807.13
2023-04-01T02:41:39.956Z,807.09
2023-04-01T02:42:39.951Z,807.16
2023-04-01T02:43:39.942Z,807.16
2023-04-01T02:44:39.945Z,807.14
2023-04-01T02:45:39.955Z,807.11
2023-04-01T02:46:39.965Z,807.11
2023-04-01T02:47:40.018Z,807.12
2023-04-01T02:48:39.957Z,807.11
2023-04-01T02:49:39.978Z,807.15
2023-04-01T02:50:39.966Z,807.14
2023-04-01T02:51:39.974Z,807.16
2023-04-01T02:52:39.992Z,807.16
2023-04-01T02:53:39.982Z,807.12
2023-04-01T02:54:39.978Z,807.10
2023-04-01T02:55:39.987Z,807.13
2023-04-01T02:56:39.990Z,807.08
2023-04-01T02:57:39.997Z,807.07
2023-04-01T02:58:39.992Z,807.06
2023-04-01T02:59:40.004Z,807.12
2023-04-01T03:00:39.999Z,807.11
2023-04-01T03:01:40.021Z,807.08
2023-04-01T03:02:40.158Z,807.02
2023-04-01T03:03:40.108Z,807.13
2023-04-01T03:04:40.012Z,807.13
2023-04-01T03:05:40.029Z,807.14
2023-04-01T03:06:40.024Z,807.09
2023-04-01T03:07:40.033Z,807.08
2023-04-01T03:08:40.027Z,807.07
2023-04-01T03:09:40.039Z,807.11
2023-04-01T03:10:40.047Z,807.11
2023-04-01T03:11:40.056Z,807.08
2023-04-01T03:12:40.062Z,807.11
2023-04-01T03:13:40.070Z,807.11
2023-04-01T03:14:40.056Z,807.10
2023-04-01T03:15:40.071Z,807.06
2023-04-01T03:16:40.130Z,807.12
2023-04-01T03:17:40.087Z,807.15
2023-04-01T03:18:40.062Z,807.11
2023-04-01T03:19:40.087Z,807.11
2023-04-01T03:20:40.067Z,807.12
2023-04-01T03:21:40.082Z,807.12
2023-04-01T03:22:42.302Z,807.08
2023-04-01T03:23:40.077Z,806.96
2023-04-01T03:24:40.079Z,806.89
2023-04-01T03:25:40.087Z,806.96
2023-04-01T03:26:40.101Z,806.89
2023-04-01T03:27:40.106Z,806.94
2023-04-01T03:28:40.094Z,806.88
2023-04-01T03:29:40.146Z,806.85
2023-04-01T03:30:40.160Z,806.78
2023-04-01T03:31:40.113Z,806.80
2023-04-01T03:32:40.199Z,806.87
2023-04-01T03:33:40.133Z,806.75
2023-04-01T03:34:40.110Z,806.81
2023-04-01T03:35:40.142Z,806.73
2023-04-01T03:36:40.148Z,806.73
2023-04-01T03:37:40.120Z,806.72
2023-04-01T03:38:40.126Z,806.74
2023-04-01T03:39:40.136Z,806.71
2023-04-01T03:40:40.131Z,806.66
2023-04-01T03:41:40.138Z,806.60
2023-04-01T03:42:40.169Z,806.74
2023-04-01T03:43:40.155Z,806.72
2023-04-01T03:44:40.142Z,806.79
2023-04-01T03:45:40.149Z,806.72
2023-04-01T03:46:40.266Z,806.60
2023-04-01T03:47:40.224Z,806.57
2023-04-01T03:48:40.155Z,806.56
2023-04-01T03:49:40.160Z,806.53
2023-04-01T03:50:40.161Z,806.61
2023-04-01T03:51:40.189Z,806.61
2023-04-01T03:52:40.166Z,806.61
2023-04-01T03:53:40.181Z,806.60
2023-04-01T03:54:40.174Z,806.58
2023-04-01T03:55:40.183Z,806.61
2023-04-01T03:56:40.181Z,806.60
2023-04-01T03:57:40.225Z,806.57
2023-04-01T03:58:40.333Z,806.59
2023-04-01T03:59:40.203Z,806.56
2023-04-01T04:00:40.194Z,806.50
2023-04-01T04:01:40.208Z,806.52
2023-04-01T04:02:40.313Z,806.53
2023-04-01T04:03:40.273Z,806.60
2023-04-01T04:04:40.347Z,806.63
2023-04-01T04:05:40.221Z,806.63
2023-04-01T04:06:40.223Z,806.58
2023-04-01T04:07:40.241Z,806.51
2023-04-01T04:08:40.222Z,806.46
2023-04-01T04:09:40.235Z,806.45
2023-04-01T04:10:40.234Z,806.55
2023-04-01T04:11:40.236Z,806.60
2023-04-01T04:12:40.236Z,806.56
2023-04-01T04:13:40.242Z,806.56
2023-04-01T04:14:40.245Z,806.51
2023-04-01T04:15:40.325Z,806.46
2023-04-01T04:16:40.256Z,806.60
2023-04-01T04:17:40.304Z,806.67
2023-04-01T04:18:40.260Z,806.67
2023-04-01T04:19:40.275Z,806.79
2023-04-01T04:20:40.276Z,806.71
2023-04-01T04:21:40.270Z,806.74
2023-04-01T04:22:40.268Z,806.67
2023-04-01T04:23:40.297Z,806.68
2023-04-01T04:24:40.274Z,806.63
2023-04-01T04:25:40.281Z,806.53
2023-04-01T04:26:40.281Z,806.52
2023-04-01T04:27:40.288Z,806.55
2023-04-01T04:28:40.291Z,806.51
2023-04-01T04:29:40.299Z,806.57
2023-04-01T04:30:40.295Z,806.59
2023-04-01T04:31:40.365Z,806.63
2023-04-01T04:32:40.346Z,806.47
2023-04-01T04:33:40.313Z,806.48
2023-04-01T04:34:40.327Z,806.48
2023-04-01T04:35:40.336Z,806.51
2023-04-01T04:36:40.319Z,806.44
2023-04-01T04:37:40.319Z,806.47
2023-04-01T04:38:40.322Z,806.45
2023-04-01T04:39:40.353Z,806.40
2023-04-01T04:40:40.325Z,806.34
2023-04-01T04:41:40.337Z,806.28
2023-04-01T04:42:40.337Z,806.27
2023-04-01T04:43:40.359Z,806.26
2023-04-01T04:44:40.372Z,806.28
2023-04-01T04:45:40.345Z,806.39
2023-04-01T04:46:40.457Z,806.38
2023-04-01T04:47:40.407Z,806.47
2023-04-01T04:48:40.363Z,806.50
2023-04-01T04:49:40.363Z,806.60
2023-04-01T04:50:40.365Z,806.56
2023-04-01T04:51:40.366Z,806.69
2023-04-01T04:52:40.367Z,806.62
2023-04-01T04:53:40.373Z,806.59
2023-04-01T04:54:40.385Z,806.62
2023-04-01T04:55:40.398Z,806.65
2023-04-01T04:56:40.403Z,806.58
2023-04-01T04:57:40.390Z,806.62
2023-04-01T04:58:40.457Z,806.65
2023-04-01T04:59:40.393Z,806.68
2023-04-01T05:00:40.387Z,806.68
2023-04-01T05:01:40.415Z,806.58
2023-04-01T05:02:40.580Z,806.64
2023-04-01T05:03:40.477Z,806.65
2023-04-01T05:04:40.401Z,806.60
2023-04-01T05:05:40.450Z,806.59
2023-04-01T05:06:40.412Z,806.55
2023-04-01T05:07:40.415Z,806.57
2023-04-01T05:08:40.417Z,806.60
2023-04-01T05:09:40.425Z,806.62
2023-04-01T05:10:40.418Z,806.64
2023-04-01T05:11:40.447Z,806.55
2023-04-01T05:12:40.424Z,806.57
2023-04-01T05:13:40.430Z,806.51
2023-04-01T05:14:40.429Z,806.48
2023-04-01T05:15:40.459Z,806.44
2023-04-01T05:16:40.483Z,806.42
2023-04-01T05:17:40.454Z,806.38
2023-04-01T05:18:40.443Z,806.31
2023-04-01T05:19:40.473Z,806.30
2023-04-01T05:20:40.456Z,806.32
2023-04-01T05:21:40.456Z,806.34
2023-04-01T05:22:40.457Z,806.34
2023-04-01T05:23:40.461Z,806.42
2023-04-01T05:24:40.480Z,806.36
2023-04-01T05:25:40.528Z,806.31
2023-04-01T05:26:40.479Z,806.34
2023-04-01T05:27:40.498Z,806.35
2023-04-01T05:28:40.534Z,806.38
2023-04-01T05:29:40.485Z,806.47
2023-04-01T05:30:40.511Z,806.61
2023-04-01T05:31:40.487Z,806.66
2023-04-01T05:32:40.518Z,806.69
2023-04-01T05:33:40.501Z,806.64
2023-04-01T05:34:40.564Z,806.59
2023-04-01T05:35:40.575Z,806.69
2023-04-01T05:36:40.511Z,806.69
2023-04-01T05:37:40.512Z,806.83
2023-04-01T05:38:40.511Z,806.86
2023-04-01T05:39:40.544Z,806.87
2023-04-01T05:40:40.515Z,806.84
2023-04-01T05:41:40.521Z,806.86
2023-04-01T05:42:40.524Z,806.87
2023-04-01T05:43:40.552Z,806.80
2023-04-01T05:44:40.540Z,806.75
2023-04-01T05:45:40.536Z,806.74
2023-04-01T05:46:40.585Z,806.73
2023-04-01T05:47:40.577Z,806.71
2023-04-01T05:48:40.541Z,806.73
2023-04-01T05:49:40.548Z,806.81
2023-04-01T05:50:40.548Z,806.79
2023-04-01T05:51:40.554Z,806.68
2023-04-01T05:52:40.551Z,806.59
2023-04-01T05:53:40.566Z,806.74
2023-04-01T05:54:40.563Z,806.77
2023-04-01T05:55:40.566Z,806.72
2023-04-01T05:56:40.565Z,806.64
2023-04-01T05:57:40.612Z,806.85
2023-04-01T05:58:40.608Z,806.71
2023-04-01T05:59:40.596Z,806.68
2023-04-01T06:00:40.577Z,806.72
2023-04-01T06:01:40.599Z,806.63
2023-04-01T06:02:40.675Z,806.78
2023-04-01T06:03:40.756Z,806.82
2023-04-01T06:04:40.648Z,806.77
2023-04-01T06:05:40.595Z,806.75
2023-04-01T06:06:40.594Z,806.75
2023-04-01T06:07:40.601Z,806.74
2023-04-01T06:08:40.606Z,806.69
2023-04-01T06:09:40.608Z,806.72
2023-04-01T06:10:40.623Z,806.68
2023-04-01T06:11:40.616Z,806.69
2023-04-01T06:12:40.615Z,806.69
2023-04-01T06:13:40.621Z,806.67
2023-04-01T06:14:40.619Z,806.69
2023-04-01T06:15:40.651Z,806.64
2023-04-01T06:16:40.720Z,806.58
2023-04-01T06:17:40.671Z,806.61
2023-04-01T06:18:40.637Z,806.60
2023-04-01T06:19:40.639Z,806.67
2023-04-01T06:20:40.637Z,806.76
2023-04-01T06:21:40.663Z,806.78
2023-04-01T06:22:40.694Z,806.81
2023-04-01T06:23:40.672Z,806.82
2023-04-01T06:24:40.659Z,806.75
2023-04-01T06:25:40.668Z,806.69
2023-04-01T06:26:40.687Z,806.78
2023-04-01T06:27:40.707Z,806.79
2023-04-01T06:28:40.685Z,806.79
2023-04-01T06:29:40.679Z,806.79
2023-04-01T06:30:40.695Z,806.78
2023-04-01T06:31:41.020Z,806.86
2023-04-01T06:32:40.747Z,806.86
2023-04-01T06:33:40.705Z,806.85
2023-04-01T06:34:40.691Z,806.90
2023-04-01T06:35:40.779Z,806.98
2023-04-01T06:36:40.740Z,806.94
2023-04-01T06:37:40.713Z,806.82
2023-04-01T06:38:40.713Z,806.97
2023-04-01T06:39:40.717Z,806.99
2023-04-01T06:40:40.722Z,806.92
2023-04-01T06:41:40.724Z,806.91
2023-04-01T06:42:40.724Z,806.86
2023-04-01T06:43:40.741Z,806.89
2023-04-01T06:44:40.729Z,806.94
2023-04-01T06:45:40.832Z,806.89
2023-04-01T06:46:40.739Z,806.97
2023-04-01T06:47:41.565Z,806.97
2023-04-01T06:48:40.740Z,806.95
2023-04-01T06:49:40.748Z,806.92
2023-04-01T06:50:40.746Z,806.95
2023-04-01T06:51:40.754Z,806.99
2023-04-01T06:52:40.757Z,806.99
2023-04-01T06:53:40.768Z,807.00
2023-04-01T06:54:40.765Z,807.03
2023-04-01T06:55:40.777Z,807.05
2023-04-01T06:56:40.769Z,807.07
2023-04-01T06:57:40.778Z,807.00
2023-04-01T06:58:40.780Z,807.03
2023-04-01T06:59:40.891Z,807.05
2023-04-01T07:00:40.792Z,807.06
2023-04-01T07:01:40.843Z,807.08
2023-04-01T07:02:40.829Z,806.96
2023-04-01T07:03:40.822Z,807.00
2023-04-01T07:04:40.913Z,807.03
2023-04-01T07:05:40.830Z,807.07
2023-04-01T07:06:40.812Z,807.11
2023-04-01T07:07:40.806Z,807.06
2023-04-01T07:08:40.820Z,807.17
2023-04-01T07:09:40.822Z,807.14
2023-04-01T07:10:40.822Z,807.10
2023-04-01T07:11:40.821Z,807.05
2023-04-01T07:12:40.831Z,807.04
2023-04-01T07:13:40.835Z,807.08
2023-04-01T07:14:40.834Z,807.09
2023-04-01T07:15:40.838Z,807.13
2023-04-01T07:16:41.039Z,807.15
2023-04-01T07:17:40.858Z,807.17
2023-04-01T07:18:40.849Z,807.16
2023-04-01T07:19:41.219Z,807.15
2023-04-01T07:20:40.860Z,807.12
2023-04-01T07:21:40.857Z,807.10
2023-04-01T07:22:40.864Z,807.06
2023-04-01T07:23:40.872Z,807.11
2023-04-01T07:24:40.882Z,807.25
2023-04-01T07:25:40.872Z,807.22
2023-04-01T07:26:40.886Z,807.27
2023-04-01T07:27:40.887Z,807.27
2023-04-01T07:28:40.891Z,807.25
2023-04-01T07:29:40.890Z,807.23
2023-04-01T07:30:40.952Z,807.17
2023-04-01T07:31:40.911Z,807.24
2023-04-01T07:32:40.938Z,807.27
2023-04-01T07:33:41.007Z,807.20
2023-04-01T07:34:40.912Z,807.24
2023-04-01T07:35:40.969Z,807.24
2023-04-01T07:36:40.928Z,807.16
2023-04-01T07:37:40.923Z,807.18
2023-04-01T07:38:40.960Z,807.22
2023-04-01T07:39:40.947Z,807.22
2023-04-01T07:40:40.938Z,807.11
2023-04-01T07:41:40.938Z,807.17
2023-04-01T07:42:40.946Z,807.30
2023-04-01T07:43:40.946Z,807.14
2023-04-01T07:44:40.955Z,807.15
2023-04-01T07:45:40.955Z,807.19
2023-04-01T07:46:41.089Z,807.17
2023-04-01T07:47:41.012Z,807.15
2023-04-01T07:48:40.969Z,807.18
2023-04-01T07:49:40.974Z,807.24
2023-04-01T07:50:40.979Z,807.26
2023-04-01T07:51:41.005Z,807.26
2023-04-01T07:52:40.988Z,807.23
2023-04-01T07:53:40.988Z,807.29
2023-04-01T07:54:40.993Z,807.31
2023-04-01T07:55:40.996Z,807.27
2023-04-01T07:56:41.009Z,807.27
2023-04-01T07:57:41.046Z,807.33
2023-04-01T07:58:41.026Z,807.34
2023-04-01T07:59:41.013Z,807.37
2023-04-01T08:00:41.023Z,807.37
2023-04-01T08:01:41.025Z,807.40
2023-04-01T08:02:41.120Z,807.41
2023-04-01T08:03:41.133Z,807.43
2023-04-01T08:04:41.032Z,807.49
2023-04-01T08:05:41.046Z,807.54
2023-04-01T08:06:41.058Z,807.52
2023-04-01T08:07:41.066Z,807.44
2023-04-01T08:08:41.057Z,807.48
2023-04-01T08:09:41.058Z,807.60
2023-04-01T08:10:41.059Z,807.62
2023-04-01T08:11:43.484Z,807.58
2023-04-01T08:12:41.071Z,807.59
2023-04-01T08:13:41.075Z,807.54
2023-04-01T08:14:41.086Z,807.54
2023-04-01T08:15:41.084Z,807.53
2023-04-01T08:16:41.148Z,807.60
2023-04-01T08:17:41.119Z,807.61
2023-04-01T08:18:41.120Z,807.58
2023-04-01T08:19:41.107Z,807.58
2023-04-01T08:20:41.100Z,807.63
2023-04-01T08:21:41.101Z,807.58
2023-04-01T08:22:41.110Z,807.58
2023-04-01T08:23:41.136Z,807.61
2023-04-01T08:24:47.536Z,807.62
2023-04-01T08:25:41.121Z,807.53
2023-04-01T08:26:41.142Z,807.55
2023-04-01T08:27:41.129Z,807.52
2023-04-01T08:28:41.142Z,807.50
2023-04-01T08:29:41.152Z,807.52
2023-04-01T08:30:41.144Z,807.58
2023-04-01T08:31:41.213Z,807.59
2023-04-01T08:32:41.185Z,807.51
2023-04-01T08:33:41.155Z,807.41
2023-04-01T08:34:41.164Z,807.45
2023-04-01T08:35:41.449Z,807.55
2023-04-01T08:36:41.175Z,807.55
2023-04-01T08:37:41.178Z,807.60
2023-04-01T08:38:41.180Z,807.59
2023-04-01T08:39:41.209Z,807.62
2023-04-01T08:40:41.204Z,807.59
2023-04-01T08:41:41.199Z,807.63
2023-04-01T08:42:41.205Z,807.58
2023-04-01T08:43:41.211Z,807.62
2023-04-01T08:44:41.213Z,807.58
2023-04-01T08:45:41.240Z,807.53
2023-04-01T08:46:41.229Z,807.58
2023-04-01T08:47:41.259Z,807.58
2023-04-01T08:48:41.237Z,807.62
2023-04-01T08:49:41.240Z,807.57
2023-04-01T08:50:41.248Z,807.62
2023-04-01T08:51:41.252Z,807.58
2023-04-01T08:52:41.259Z,807.59
2023-04-01T08:53:41.290Z,807.66
2023-04-01T08:54:41.293Z,807.60
2023-04-01T08:55:41.299Z,807.64
2023-04-01T08:56:41.283Z,807.65
2023-04-01T08:57:41.281Z,807.58
2023-04-01T08:58:41.304Z,807.51
2023-04-01T08:59:41.295Z,807.55
2023-04-01T09:00:41.306Z,807.66
2023-04-01T09:01:41.305Z,807.69
2023-04-01T09:02:41.446Z,807.69
2023-04-01T09:03:41.478Z,807.66
2023-04-01T09:04:41.334Z,807.64
2023-04-01T09:05:41.344Z,807.63
2023-04-01T09:06:41.347Z,807.66
2023-04-01T09:07:41.341Z,807.66
2023-04-01T09:08:41.372Z,807.66
2023-04-01T09:09:41.354Z,807.72
2023-04-01T09:10:41.373Z,807.80
2023-04-01T09:11:41.397Z,807.85
2023-04-01T09:12:41.379Z,807.98
2023-04-01T09:13:41.401Z,807.98
2023-04-01T09:14:41.383Z,807.94
2023-04-01T09:15:41.476Z,807.93
2023-04-01T09:16:41.400Z,807.87
2023-04-01T09:17:41.471Z,807.86
2023-04-01T09:18:41.410Z,807.90
2023-04-01T09:19:41.425Z,807.95
2023-04-01T09:20:41.427Z,807.96
2023-04-01T09:21:41.446Z,807.99
2023-04-01T09:22:41.436Z,807.81
2023-04-01T09:23:41.441Z,807.83
2023-04-01T09:24:41.451Z,807.85
2023-04-01T09:25:41.458Z,807.89
2023-04-01T09:26:41.463Z,807.99
2023-04-01T09:27:41.484Z,808.01
2023-04-01T09:28:41.472Z,807.87
2023-04-01T09:29:41.476Z,807.80
2023-04-01T09:30:41.512Z,807.81
2023-04-01T09:31:41.557Z,807.85
2023-04-01T09:32:41.577Z,807.92
2023-04-01T09:33:41.509Z,807.90
2023-04-01T09:34:41.514Z,807.99
2023-04-01T09:35:41.537Z,808.07
2023-04-01T09:36:41.547Z,807.99
2023-04-01T09:37:41.529Z,808.25
2023-04-01T09:38:41.550Z,808.21
2023-04-01T09:39:41.545Z,808.17
2023-04-01T09:40:41.560Z,808.13
2023-04-01T09:41:41.558Z,807.92
2023-04-01T09:42:41.568Z,807.73
2023-04-01T09:43:41.593Z,807.78
2023-04-01T09:44:42.929Z,807.88
2023-04-01T09:45:41.585Z,807.90
2023-04-01T09:46:41.870Z,807.99
2023-04-01T09:47:41.619Z,808.05
2023-04-01T09:48:41.605Z,808.03
2023-04-01T09:49:41.622Z,807.88
2023-04-01T09:50:41.625Z,807.88
2023-04-01T09:51:41.638Z,807.82
2023-04-01T09:52:41.633Z,807.85
2023-04-01T09:53:41.658Z,807.86
2023-04-01T09:54:41.645Z,807.89
2023-04-01T09:55:41.651Z,807.84
2023-04-01T09:56:41.662Z,807.83
2023-04-01T09:57:41.664Z,807.87
2023-04-01T09:58:43.914Z,807.85
2023-04-01T09:59:41.697Z,807.86
2023-04-01T10:00:41.692Z,807.89
2023-04-01T10:01:41.814Z,807.88
2023-04-01T10:02:41.716Z,807.90
2023-04-01T10:03:41.704Z,807.89
2023-04-01T10:04:41.715Z,807.92
2023-04-01T10:05:41.772Z,807.89
2023-04-01T10:06:41.726Z,807.89
2023-04-01T10:07:41.735Z,807.87
2023-04-01T10:08:41.744Z,807.91
2023-04-01T10:09:41.758Z,807.90
2023-04-01T10:10:41.759Z,807.93
2023-04-01T10:11:41.767Z,807.90
2023-04-01T10:12:41.773Z,807.94
2023-04-01T10:13:41.781Z,807.97
2023-04-01T10:14:41.791Z,807.94
2023-04-01T10:15:41.817Z,808.00
2023-04-01T10:16:41.838Z,807.97
2023-04-01T10:17:41.833Z,807.95
2023-04-01T10:18:41.822Z,807.97
2023-04-01T10:19:41.825Z,807.97
2023-04-01T10:20:41.844Z,807.96
2023-04-01T10:21:41.845Z,807.97
2023-04-01T10:22:41.858Z,808.00
2023-04-01T10:23:41.868Z,807.98
2023-04-01T10:24:41.877Z,807.93
2023-04-01T10:25:41.873Z,807.93
2023-04-01T10:26:41.895Z,807.91
2023-04-01T10:27:41.904Z,807.93
2023-04-01T10:28:41.904Z,807.88
2023-04-01T10:29:41.913Z,807.90
2023-04-01T10:30:41.929Z,807.92
2023-04-01T10:31:41.972Z,807.89
2023-04-01T10:32:43.587Z,807.88
2023-04-01T10:33:41.947Z,807.87
2023-04-01T10:34:41.954Z,807.87
2023-04-01T10:35:41.980Z,807.92
2023-04-01T10:36:41.974Z,807.91
2023-04-01T10:37:41.980Z,807.91
2023-04-01T10:38:41.996Z,807.89
2023-04-01T10:39:41.997Z,807.93
2023-04-01T10:40:42.015Z,807.84
2023-04-01T10:41:42.028Z,807.86
2023-04-01T10:42:42.031Z,807.82
2023-04-01T10:43:42.042Z,807.85
2023-04-01T10:44:42.051Z,807.81
2023-04-01T10:45:42.088Z,807.87
2023-04-01T10:46:42.068Z,807.78
2023-04-01T10:47:42.115Z,807.78
2023-04-01T10:48:42.111Z,807.85
2023-04-01T10:49:42.100Z,807.84
2023-04-01T10:50:42.109Z,807.85
2023-04-01T10:51:42.115Z,807.82
2023-04-01T10:52:42.128Z,807.83
2023-04-01T10:53:42.138Z,807.74
2023-04-01T10:54:42.187Z,807.76
2023-04-01T10:55:42.153Z,807.77
2023-04-01T10:56:42.169Z,807.77
2023-04-01T10:57:42.172Z,807.79
2023-04-01T10:58:42.185Z,807.81
2023-04-01T10:59:42.197Z,807.77
2023-04-01T11:00:42.248Z,807.80
2023-04-01T11:01:42.330Z,807.79
2023-04-01T11:02:42.390Z,807.74
2023-04-01T11:03:42.327Z,807.76
2023-04-01T11:04:42.245Z,807.75
2023-04-01T11:05:42.250Z,807.76
2023-04-01T11:06:42.269Z,807.75
2023-04-01T11:07:42.271Z,807.78
2023-04-01T11:08:42.285Z,807.79
2023-04-01T11:09:42.315Z,807.85
2023-04-01T11:10:42.322Z,807.73
2023-04-01T11:11:42.313Z,807.74
2023-04-01T11:12:42.323Z,807.68
2023-04-01T11:13:42.332Z,807.74
2023-04-01T11:14:42.344Z,807.72
2023-04-01T11:15:42.386Z,807.76
2023-04-01T11:16:42.408Z,807.74
2023-04-01T11:17:42.414Z,807.74
2023-04-01T11:18:42.400Z,807.72
2023-04-01T11:19:42.417Z,807.68
2023-04-01T11:20:42.403Z,807.68
2023-04-01T11:21:42.418Z,807.71
2023-04-01T11:22:42.427Z,807.70
2023-04-01T11:23:43.992Z,807.66
2023-04-01T11:24:42.442Z,807.64
2023-04-01T11:25:42.463Z,807.63
2023-04-01T11:26:42.483Z,807.65
2023-04-01T11:27:42.477Z,807.69
2023-04-01T11:28:42.484Z,807.70
2023-04-01T11:29:53.177Z,807.66
2023-04-01T11:30:42.511Z,807.65
2023-04-01T11:31:42.569Z,807.63
2023-04-01T11:32:42.570Z,807.60
2023-04-01T11:33:42.543Z,807.60
2023-04-01T11:34:42.553Z,807.60
2023-04-01T11:35:42.584Z,807.59
2023-04-01T11:36:42.599Z,807.58
2023-04-01T11:37:42.584Z,807.56
2023-04-01T11:38:42.611Z,807.59
2023-04-01T11:39:42.615Z,807.57
2023-04-01T11:40:42.649Z,807.56
2023-04-01T11:41:42.629Z,807.56
2023-04-01T11:42:42.638Z,807.50
2023-04-01T11:43:42.668Z,807.57
2023-04-01T11:44:42.664Z,807.54
2023-04-01T11:45:42.675Z,807.52
2023-04-01T11:46:42.798Z,807.51
2023-04-01T11:47:42.725Z,807.51
2023-04-01T11:48:44.832Z,807.58
2023-04-01T11:49:42.725Z,807.50
2023-04-01T11:50:42.723Z,807.56
2023-04-01T11:51:42.797Z,807.56
2023-04-01T11:52:42.744Z,807.54
2023-04-01T11:53:42.770Z,807.59
2023-04-01T11:54:42.764Z,807.56
2023-04-01T11:55:42.786Z,807.57
2023-04-01T11:56:42.824Z,807.59
2023-04-01T11:57:42.797Z,807.60
2023-04-01T11:58:42.821Z,807.58
2023-04-01T11:59:42.828Z,807.64
2023-04-01T12:00:42.853Z,807.56
2023-04-01T12:01:42.865Z,807.57
2023-04-01T12:02:42.915Z,807.59
2023-04-01T12:03:43.014Z,807.57
2023-04-01T12:04:42.933Z,807.54
2023-04-01T12:05:42.881Z,807.52
2023-04-01T12:06:42.889Z,807.54
2023-04-01T12:07:43.873Z,807.49
2023-04-01T12:08:42.911Z,807.45
2023-04-01T12:09:42.923Z,807.39
2023-04-01T12:10:42.938Z,807.41
2023-04-01T12:11:42.952Z,807.45
2023-04-01T12:12:50.710Z,807.45
2023-04-01T12:13:42.967Z,807.40
2023-04-01T12:14:42.972Z,807.40
2023-04-01T12:15:42.986Z,807.35
2023-04-01T12:16:43.058Z,807.35
2023-04-01T12:17:43.021Z,807.34
2023-04-01T12:18:43.014Z,807.32
2023-04-01T12:19:43.030Z,807.28
2023-04-01T12:20:43.036Z,807.30
2023-04-01T12:21:43.074Z,807.24
2023-04-01T12:22:43.060Z,807.25
2023-04-01T12:23:43.097Z,807.22
2023-04-01T12:24:43.085Z,807.23
2023-04-01T12:25:43.097Z,807.24
2023-04-01T12:26:43.109Z,807.21
2023-04-01T12:27:43.140Z,807.22
2023-04-01T12:28:43.152Z,807.18